Time;durP1;ratioP1;P1;durP2;ratioP2;P2;SDS_P1;SDS_P2;PMS_P1;PMS_P2;Temp;Humidity;BMP_temperature;BMP_pressure;BME280_temperature;BME280_humidity;BME280_pressure;Samples;Min_cycle;Max_cycle;Signal;HPM_P1;HPM_P2
2021/09/21 00:00:07;;;;;;;8.07;6.67;;;10.30;99.90;;;;;;4873469;29;20773;-67
2021/09/21 00:02:35;;;;;;;7.43;6.67;;;10.20;99.90;;;;;;4873871;29;20271;-67
2021/09/21 00:05:06;;;;;;;8.33;6.50;;;10.20;99.90;;;;;;4877405;29;20206;-67
2021/09/21 00:07:35;;;;;;;7.33;6.63;;;10.20;99.90;;;;;;4876965;29;20209;-66
2021/09/21 00:10:05;;;;;;;7.67;6.83;;;10.10;99.90;;;;;;4862260;29;20202;-67
2021/09/21 00:12:35;;;;;;;7.63;6.83;;;10.00;99.90;;;;;;4872289;29;20199;-67
2021/09/21 00:15:05;;;;;;;8.57;6.70;;;9.90;99.90;;;;;;4875026;29;20721;-64
2021/09/21 00:17:34;;;;;;;8.43;6.53;;;9.90;99.90;;;;;;4871928;29;20190;-66
2021/09/21 00:20:02;;;;;;;7.73;6.93;;;9.90;99.90;;;;;;4876771;29;20250;-67
2021/09/21 00:22:30;;;;;;;8.00;7.20;;;9.80;99.90;;;;;;4881602;29;20704;-67
2021/09/21 00:24:59;;;;;;;8.10;7.00;;;9.80;99.90;;;;;;4867794;29;20195;-66
2021/09/21 00:27:28;;;;;;;7.57;6.77;;;9.70;99.90;;;;;;4875410;29;20221;-66
2021/09/21 00:29:57;;;;;;;8.03;7.23;;;9.70;99.90;;;;;;4877080;29;20205;-67
2021/09/21 00:32:27;;;;;;;12.83;7.40;;;9.70;99.90;;;;;;4870458;29;20223;-66
2021/09/21 00:34:56;;;;;;;8.67;6.90;;;9.70;99.90;;;;;;4874346;29;20617;-67
2021/09/21 00:37:24;;;;;;;7.43;6.77;;;9.70;99.90;;;;;;4877775;29;20661;-67
2021/09/21 00:39:53;;;;;;;9.30;7.03;;;9.60;99.90;;;;;;4873158;29;20250;-66
2021/09/21 00:42:28;;;;;;;10.47;7.07;;;9.60;99.90;;;;;;4859811;29;20261;-67
2021/09/21 00:45:00;;;;;;;7.90;6.63;;;9.60;99.90;;;;;;4874970;29;20261;-67
2021/09/21 00:47:28;;;;;;;9.63;6.80;;;9.60;99.90;;;;;;4858215;29;20619;-66
2021/09/21 00:49:57;;;;;;;7.43;6.73;;;9.50;99.90;;;;;;4874613;29;20287;-67
2021/09/21 00:52:26;;;;;;;8.37;6.30;;;9.40;99.90;;;;;;4874114;29;20267;-66
2021/09/21 00:54:54;;;;;;;10.60;7.20;;;9.40;99.90;;;;;;4872847;29;20198;-67
2021/09/21 00:57:24;;;;;;;7.97;7.17;;;9.30;99.90;;;;;;4875475;29;20222;-67
2021/09/21 00:59:53;;;;;;;9.97;7.60;;;9.30;99.90;;;;;;4860327;29;20271;-67
2021/09/21 01:02:22;;;;;;;9.10;7.70;;;9.20;99.90;;;;;;4877943;29;20245;-67
2021/09/21 01:04:51;;;;;;;9.13;7.10;;;9.20;99.90;;;;;;4873562;29;20200;-67
2021/09/21 01:07:19;;;;;;;13.17;7.97;;;9.10;99.90;;;;;;4880174;29;20230;-67
2021/09/21 01:09:48;;;;;;;10.37;7.70;;;9.10;99.90;;;;;;4875215;29;20207;-64
2021/09/21 01:12:16;;;;;;;8.73;7.70;;;9.10;99.90;;;;;;4871753;29;20609;-67
2021/09/21 01:14:45;;;;;;;9.73;7.27;;;9.10;99.90;;;;;;4871825;29;20473;-67
2021/09/21 01:17:13;;;;;;;9.63;8.13;;;9.10;99.90;;;;;;4871985;29;20251;-67
2021/09/21 01:19:43;;;;;;;13.07;7.60;;;9.10;99.90;;;;;;4874280;29;20215;-65
2021/09/21 01:22:13;;;;;;;7.83;7.03;;;9.00;99.90;;;;;;4874660;29;20261;-67
2021/09/21 01:24:41;;;;;;;9.13;7.57;;;9.00;99.90;;;;;;4877733;29;20293;-67
2021/09/21 01:27:09;;;;;;;11.00;7.57;;;8.90;99.90;;;;;;4878827;29;20230;-67
2021/09/21 01:29:38;;;;;;;12.57;8.17;;;8.90;99.90;;;;;;4872556;29;20222;-66
2021/09/21 01:32:06;;;;;;;8.63;7.40;;;8.90;99.90;;;;;;4877500;29;20199;-67
2021/09/21 01:34:35;;;;;;;11.40;7.80;;;8.80;99.90;;;;;;4856535;29;20643;-66
2021/09/21 01:37:06;;;;;;;12.07;8.13;;;8.80;99.90;;;;;;4864009;29;20187;-67
2021/09/21 01:39:35;;;;;;;15.93;8.27;;;8.70;99.90;;;;;;4874027;29;20270;-65
2021/09/21 01:42:04;;;;;;;10.70;8.13;;;8.70;99.90;;;;;;4872983;29;20275;-67
2021/09/21 01:44:33;;;;;;;9.57;8.10;;;8.70;99.90;;;;;;4856682;29;20228;-67
2021/09/21 01:47:04;;;;;;;10.07;8.23;;;8.70;99.90;;;;;;4857316;29;20271;-67
2021/09/21 01:49:39;;;;;;;8.67;7.77;;;8.70;99.90;;;;;;4854465;29;20287;-66
2021/09/21 01:52:11;;;;;;;10.03;8.83;;;8.70;99.90;;;;;;4855582;29;20203;-67
2021/09/21 01:55:02;;;;;;;9.30;8.40;;;8.60;99.90;;;;;;4857189;29;20207;-66
2021/09/21 02:00:17;;;;;;;11.67;8.90;;;8.50;99.90;;;;;;4851674;29;20212;-67
2021/09/21 02:02:45;;;;;;;10.90;8.87;;;8.50;99.90;;;;;;4851636;29;20670;-66
2021/09/21 02:05:17;;;;;;;13.10;8.93;;;8.40;99.90;;;;;;4854542;29;20306;-67
2021/09/21 02:07:45;;;;;;;14.77;9.23;;;8.40;99.90;;;;;;4850738;29;20207;-67
2021/09/21 02:10:15;;;;;;;11.03;8.43;;;8.40;99.90;;;;;;4855628;29;20192;-67
2021/09/21 02:12:43;;;;;;;14.27;9.90;;;8.30;99.90;;;;;;4854427;29;20260;-66
2021/09/21 02:15:20;;;;;;;12.07;9.20;;;8.30;99.90;;;;;;4850397;29;20223;-67
2021/09/21 02:17:48;;;;;;;12.40;9.40;;;8.30;99.90;;;;;;4856834;29;20207;-66
2021/09/21 02:20:16;;;;;;;15.00;9.77;;;8.30;99.90;;;;;;4856764;29;20717;-67
2021/09/21 02:22:45;;;;;;;15.00;9.80;;;8.30;99.90;;;;;;4857517;29;20187;-66
2021/09/21 02:25:15;;;;;;;12.73;9.77;;;8.30;99.90;;;;;;4855342;29;20230;-67
2021/09/21 02:27:43;;;;;;;10.53;9.23;;;8.20;99.90;;;;;;4853887;29;20211;-67
2021/09/21 02:30:12;;;;;;;14.20;9.63;;;8.20;99.90;;;;;;4855782;29;20233;-67
2021/09/21 02:32:41;;;;;;;12.83;9.70;;;8.10;99.90;;;;;;4858412;29;20293;-67
2021/09/21 02:35:10;;;;;;;11.90;9.60;;;8.10;99.90;;;;;;4854476;29;20290;-66
2021/09/21 02:37:38;;;;;;;12.23;10.07;;;8.00;99.90;;;;;;4852894;29;20290;-67
2021/09/21 02:40:09;;;;;;;11.53;9.73;;;8.00;99.90;;;;;;4852208;29;20235;-65
2021/09/21 02:42:39;;;;;;;14.20;10.17;;;8.00;99.90;;;;;;4872174;29;20266;-66
2021/09/21 02:45:08;;;;;;;15.73;9.73;;;7.90;99.90;;;;;;4854625;29;20196;-66
2021/09/21 02:47:37;;;;;;;13.23;9.70;;;7.90;99.90;;;;;;4872581;29;20230;-67
2021/09/21 02:50:07;;;;;;;15.87;10.93;;;7.90;99.90;;;;;;4866494;29;20295;-67
2021/09/21 02:52:36;;;;;;;12.37;9.60;;;7.90;99.90;;;;;;4872915;29;20684;-66
2021/09/21 02:55:06;;;;;;;12.00;10.37;;;7.90;99.90;;;;;;4873961;29;20191;-67
2021/09/21 02:57:36;;;;;;;12.50;10.77;;;7.90;99.90;;;;;;4876967;29;20216;-67
2021/09/21 03:00:08;;;;;;;13.60;10.77;;;7.90;99.90;;;;;;4876596;29;20222;-66
2021/09/21 03:02:36;;;;;;;14.03;10.77;;;7.80;99.90;;;;;;4861804;29;20230;-67
2021/09/21 03:05:10;;;;;;;14.97;10.33;;;7.80;99.90;;;;;;4877152;29;20674;-66
2021/09/21 03:07:42;;;;;;;12.53;9.80;;;7.80;99.90;;;;;;4880628;29;20199;-66
2021/09/21 03:10:21;;;;;;;11.67;10.10;;;7.80;99.90;;;;;;4874330;29;20195;-66
2021/09/21 03:18:34;;;;;;;12.17;10.40;;;7.80;99.90;;;;;;4842763;29;20705;-66
2021/09/21 03:21:02;;;;;;;14.53;10.83;;;7.70;99.90;;;;;;4876900;29;20262;-67
2021/09/21 03:23:30;;;;;;;15.10;10.83;;;7.70;99.90;;;;;;4880008;29;20929;-67
2021/09/21 03:25:59;;;;;;;17.80;10.43;;;7.70;99.90;;;;;;4873511;29;20204;-66
2021/09/21 03:28:28;;;;;;;12.77;9.63;;;7.70;99.90;;;;;;4876276;29;20690;-66
2021/09/21 03:30:57;;;;;;;12.17;9.73;;;7.70;99.90;;;;;;4873957;29;20203;-66
2021/09/21 03:33:25;;;;;;;16.67;10.93;;;7.70;99.90;;;;;;4860160;29;20285;-67
2021/09/21 03:35:54;;;;;;;15.33;10.90;;;7.60;99.90;;;;;;4878491;29;20692;-66
2021/09/21 03:38:23;;;;;;;15.03;10.70;;;7.60;99.90;;;;;;4874370;29;20255;-66
2021/09/21 03:40:51;;;;;;;13.20;10.73;;;7.60;99.90;;;;;;4859511;29;20601;-67
2021/09/21 03:43:20;;;;;;;16.83;12.07;;;7.60;99.90;;;;;;4879923;29;20250;-66
2021/09/21 03:45:49;;;;;;;14.67;11.50;;;7.50;99.90;;;;;;4857096;29;20283;-66
2021/09/21 03:48:18;;;;;;;14.57;10.90;;;7.50;99.90;;;;;;4875986;29;20195;-66
2021/09/21 03:50:47;;;;;;;13.53;10.20;;;7.50;99.90;;;;;;4876788;29;20202;-67
2021/09/21 03:53:15;;;;;;;16.80;10.73;;;7.50;99.90;;;;;;4877761;29;20210;-67
2021/09/21 03:55:44;;;;;;;13.43;10.67;;;7.50;99.90;;;;;;4875256;29;20209;-66
2021/09/21 03:58:12;;;;;;;14.87;11.10;;;7.40;99.90;;;;;;4876906;29;20282;-66
2021/09/21 04:00:40;;;;;;;15.30;11.13;;;7.40;99.90;;;;;;4876657;29;20303;-66
2021/09/21 04:03:09;;;;;;;11.57;10.30;;;7.30;99.90;;;;;;4883428;29;20666;-67
2021/09/21 04:05:41;;;;;;;15.53;11.10;;;7.40;99.90;;;;;;4878221;29;20201;-67
2021/09/21 04:08:09;;;;;;;12.97;10.43;;;7.30;99.90;;;;;;4878974;29;20199;-67
2021/09/21 04:10:38;;;;;;;16.03;11.20;;;7.30;99.90;;;;;;4875785;29;20210;-66
2021/09/21 04:13:57;;;;;;;14.10;10.80;;;7.30;99.90;;;;;;4871015;29;20202;-66
2021/09/21 04:16:28;;;;;;;16.00;11.17;;;7.30;99.90;;;;;;4857287;29;20223;-66
2021/09/21 04:18:57;;;;;;;17.17;12.13;;;7.30;99.90;;;;;;4874878;29;20286;-66
2021/09/21 04:21:27;;;;;;;14.37;10.37;;;7.30;99.90;;;;;;4875833;29;20359;-66
2021/09/21 04:23:56;;;;;;;15.33;10.67;;;7.30;99.90;;;;;;4860141;29;20206;-66
2021/09/21 04:26:24;;;;;;;16.33;11.07;;;7.40;99.90;;;;;;4876058;29;20409;-66
2021/09/21 04:28:53;;;;;;;18.17;11.90;;;7.40;99.90;;;;;;4875464;29;20282;-66
2021/09/21 04:31:24;;;;;;;16.63;11.07;;;7.40;99.90;;;;;;4875149;29;20291;-66
2021/09/21 04:33:54;;;;;;;13.97;10.80;;;7.40;99.90;;;;;;4879351;29;20231;-66
2021/09/21 04:36:22;;;;;;;17.83;11.30;;;7.30;99.90;;;;;;4858730;29;20195;-66
2021/09/21 04:38:55;;;;;;;14.73;10.43;;;7.30;99.90;;;;;;4872554;29;20230;-66
2021/09/21 04:41:24;;;;;;;13.20;9.97;;;7.20;99.90;;;;;;4857197;29;20326;-66
2021/09/21 04:43:52;;;;;;;13.37;10.17;;;7.20;99.90;;;;;;4875179;29;20202;-66
2021/09/21 04:46:21;;;;;;;13.07;10.67;;;7.20;99.90;;;;;;4875634;29;20226;-65
2021/09/21 04:48:49;;;;;;;13.13;9.83;;;7.20;99.90;;;;;;4874623;29;20676;-66
2021/09/21 04:51:18;;;;;;;14.00;10.70;;;7.10;99.90;;;;;;4875678;29;20290;-66
2021/09/21 04:53:46;;;;;;;14.63;10.80;;;7.10;99.90;;;;;;4874201;29;20242;-66
2021/09/21 04:56:16;;;;;;;16.30;10.90;;;7.10;99.90;;;;;;4860719;29;20198;-65
2021/09/21 04:58:44;;;;;;;19.57;11.53;;;7.10;99.90;;;;;;4879692;29;20232;-65
2021/09/21 05:01:12;;;;;;;14.00;10.47;;;7.00;99.90;;;;;;4872706;29;20246;-66
2021/09/21 05:03:41;;;;;;;14.60;10.77;;;7.00;99.90;;;;;;4861654;29;20210;-66
2021/09/21 05:06:09;;;;;;;15.80;11.83;;;6.90;99.90;;;;;;4877554;29;20561;-66
2021/09/21 05:08:38;;;;;;;17.83;11.37;;;6.90;99.90;;;;;;4856365;29;20207;-65
2021/09/21 05:11:06;;;;;;;17.90;10.70;;;6.90;99.90;;;;;;4866324;29;20760;-66
2021/09/21 05:13:36;;;;;;;28.23;11.73;;;6.80;99.90;;;;;;4871283;29;20416;-66
2021/09/21 05:16:05;;;;;;;23.60;10.90;;;6.80;99.90;;;;;;4874416;29;20233;-66
2021/09/21 05:18:34;;;;;;;14.27;11.40;;;6.80;99.90;;;;;;4862789;29;20292;-66
2021/09/21 05:21:03;;;;;;;20.07;11.70;;;6.80;99.90;;;;;;4876803;29;21074;-66
2021/09/21 05:23:31;;;;;;;20.57;12.03;;;6.80;99.90;;;;;;4883459;29;20298;-66
2021/09/21 05:25:59;;;;;;;15.70;10.93;;;6.80;99.90;;;;;;4878020;29;20666;-66
2021/09/21 05:28:28;;;;;;;20.57;11.17;;;6.80;99.90;;;;;;4873605;29;20230;-66
2021/09/21 05:30:58;;;;;;;17.00;11.23;;;6.80;99.90;;;;;;4871770;29;20206;-67
2021/09/21 05:33:27;;;;;;;21.57;11.07;;;6.80;99.90;;;;;;4873449;29;20223;-67
2021/09/21 05:35:55;;;;;;;24.33;11.17;;;6.80;99.90;;;;;;4877188;29;20223;-66
2021/09/21 05:38:24;;;;;;;23.30;12.07;;;6.70;99.90;;;;;;4881495;29;20651;-67
2021/09/21 05:40:52;;;;;;;16.43;11.23;;;6.70;99.90;;;;;;4876890;29;20230;-66
2021/09/21 05:43:21;;;;;;;23.03;12.00;;;6.70;99.90;;;;;;4873420;29;20736;-66
2021/09/21 05:45:49;;;;;;;21.00;12.97;;;6.80;99.90;;;;;;4860698;29;20262;-66
2021/09/21 05:48:19;;;;;;;17.87;12.43;;;6.80;99.90;;;;;;4870144;29;20527;-66
2021/09/21 05:50:47;;;;;;;19.80;11.97;;;6.80;99.90;;;;;;4871592;29;20353;-66
2021/09/21 05:53:16;;;;;;;29.67;13.00;;;6.80;99.90;;;;;;4875009;29;20195;-66
2021/09/21 05:55:45;;;;;;;19.07;11.43;;;6.90;99.90;;;;;;4852183;29;20242;-66
2021/09/21 05:58:14;;;;;;;26.77;12.93;;;6.90;99.90;;;;;;4861868;29;20231;-66
2021/09/21 06:00:43;;;;;;;25.27;12.37;;;6.90;99.90;;;;;;4873005;29;20408;-65
2021/09/21 06:03:12;;;;;;;35.93;13.07;;;6.90;99.90;;;;;;4874714;29;20219;-66
2021/09/21 06:05:42;;;;;;;26.33;12.60;;;7.00;99.90;;;;;;4883294;29;20240;-66
2021/09/21 06:08:10;;;;;;;32.03;13.50;;;7.00;99.90;;;;;;4879090;29;20262;-66
2021/09/21 06:10:38;;;;;;;26.20;12.57;;;7.00;99.90;;;;;;4879066;29;20230;-66
2021/09/21 06:13:07;;;;;;;28.07;12.03;;;7.00;99.90;;;;;;4862561;29;20870;-66
2021/09/21 06:15:35;;;;;;;24.13;12.50;;;7.00;99.90;;;;;;4879542;29;20215;-66
2021/09/21 06:18:04;;;;;;;22.43;13.27;;;7.00;99.90;;;;;;4875279;29;20623;-64
2021/09/21 06:20:32;;;;;;;30.77;13.60;;;7.00;99.90;;;;;;4886797;29;20303;-66
2021/09/21 06:23:02;;;;;;;22.70;13.33;;;7.10;99.90;;;;;;4890434;29;20220;-66
2021/09/21 06:25:31;;;;;;;24.30;13.20;;;7.20;99.90;;;;;;4877939;29;20706;-66
2021/09/21 06:27:59;;;;;;;20.80;13.27;;;7.20;99.90;;;;;;4881066;29;20599;-66
2021/09/21 06:30:28;;;;;;;22.23;13.33;;;7.20;99.90;;;;;;4882007;29;20273;-66
2021/09/21 06:32:57;;;;;;;19.57;13.30;;;7.30;99.90;;;;;;4867552;29;20226;-66
2021/09/21 06:35:25;;;;;;;21.43;14.60;;;7.40;99.90;;;;;;4871691;29;20238;-66
2021/09/21 06:37:54;;;;;;;21.30;13.33;;;7.40;99.90;;;;;;4842616;29;20281;-64
2021/09/21 06:40:26;;;;;;;19.73;13.60;;;7.50;99.90;;;;;;4879030;29;20202;-66
2021/09/21 06:42:54;;;;;;;21.17;13.70;;;7.60;99.90;;;;;;4864295;29;20246;-66
2021/09/21 06:45:23;;;;;;;22.10;15.13;;;7.70;99.90;;;;;;4867844;29;20631;-66
2021/09/21 06:47:53;;;;;;;22.53;14.53;;;7.80;99.90;;;;;;4875003;29;20237;-66
2021/09/21 06:50:22;;;;;;;20.87;14.53;;;8.00;99.90;;;;;;4867727;29;20294;-66
2021/09/21 06:52:50;;;;;;;25.30;15.10;;;8.20;99.90;;;;;;4854793;29;20563;-66
2021/09/21 06:55:18;;;;;;;20.80;14.77;;;8.30;99.90;;;;;;4866441;29;20215;-66
2021/09/21 06:57:52;;;;;;;24.20;15.23;;;8.60;99.90;;;;;;4874859;29;20194;-64
2021/09/21 07:00:21;;;;;;;20.93;14.90;;;8.70;99.90;;;;;;4874905;29;20266;-65
2021/09/21 07:02:52;;;;;;;22.07;14.27;;;8.90;99.90;;;;;;4871850;29;20301;-66
2021/09/21 07:05:22;;;;;;;22.43;14.90;;;9.10;99.90;;;;;;4866223;29;20198;-65
2021/09/21 07:07:52;;;;;;;22.03;14.50;;;9.40;99.90;;;;;;4868520;29;20194;-66
2021/09/21 07:10:21;;;;;;;19.20;14.33;;;9.60;99.90;;;;;;4870298;29;20226;-65
2021/09/21 07:12:51;;;;;;;20.80;14.20;;;9.80;99.90;;;;;;4870945;29;20251;-66
2021/09/21 07:15:22;;;;;;;20.03;13.83;;;10.00;99.90;;;;;;4855640;29;20211;-65
2021/09/21 07:17:53;;;;;;;21.83;14.40;;;10.10;99.90;;;;;;4865475;29;20231;-65
2021/09/21 07:20:23;;;;;;;20.13;13.57;;;10.30;99.90;;;;;;4873460;29;20289;-66
2021/09/21 07:22:52;;;;;;;17.23;12.53;;;10.50;99.90;;;;;;4858787;29;20698;-64
2021/09/21 07:25:20;;;;;;;17.40;11.73;;;10.70;99.90;;;;;;4864789;29;20290;-66
2021/09/21 07:27:52;;;;;;;18.03;12.27;;;11.00;99.90;;;;;;4870334;29;20198;-66
2021/09/21 07:30:21;;;;;;;16.37;11.93;;;11.10;99.90;;;;;;4878487;29;20230;-66
2021/09/21 07:32:49;;;;;;;18.33;12.17;;;11.20;99.90;;;;;;4871804;29;20234;-66
2021/09/21 07:35:18;;;;;;;18.20;11.67;;;11.50;99.90;;;;;;4871929;29;20286;-64
2021/09/21 07:37:46;;;;;;;17.17;11.33;;;11.80;99.90;;;;;;4870601;29;20275;-64
2021/09/21 07:40:16;;;;;;;16.43;10.23;;;12.00;99.90;;;;;;4875862;29;20729;-65
2021/09/21 07:42:44;;;;;;;12.43;11.07;;;12.20;99.90;;;;;;4877426;29;20238;-66
2021/09/21 07:45:14;;;;;;;13.43;9.93;;;12.30;99.90;;;;;;4867602;29;20289;-65
2021/09/21 07:47:43;;;;;;;12.27;10.30;;;12.40;99.90;;;;;;4876577;29;20251;-66
2021/09/21 07:50:12;;;;;;;14.70;10.60;;;12.40;99.90;;;;;;4874000;29;20255;-66
2021/09/21 07:52:41;;;;;;;11.27;10.07;;;12.50;99.90;;;;;;4871615;29;20238;-65
2021/09/21 07:55:10;;;;;;;15.87;11.13;;;12.70;99.90;;;;;;4874888;29;20246;-65
2021/09/21 07:57:40;;;;;;;17.27;10.13;;;12.80;99.90;;;;;;4881113;29;20206;-66
2021/09/21 08:00:11;;;;;;;14.50;9.97;;;12.90;99.90;;;;;;4873920;29;20270;-65
2021/09/21 08:02:41;;;;;;;15.50;10.87;;;12.90;99.90;;;;;;4868126;29;20203;-65
2021/09/21 08:05:11;;;;;;;24.50;10.67;;;12.90;99.90;;;;;;4879166;29;20199;-65
2021/09/21 08:07:40;;;;;;;19.10;10.90;;;12.90;99.90;;;;;;4875014;29;20720;-66
2021/09/21 08:10:13;;;;;;;18.80;10.50;;;13.00;99.90;;;;;;4854237;29;20230;-65
2021/09/21 08:12:41;;;;;;;16.53;10.50;;;13.00;99.90;;;;;;4875505;29;20654;-65
2021/09/21 08:15:11;;;;;;;13.43;10.37;;;13.20;99.90;;;;;;4859555;29;20742;-65
2021/09/21 08:17:40;;;;;;;15.53;10.47;;;13.30;99.90;;;;;;4879533;29;20198;-66
2021/09/21 08:20:10;;;;;;;18.87;9.63;;;13.50;99.90;;;;;;4871094;29;20689;-65
2021/09/21 08:22:39;;;;;;;16.57;10.43;;;13.70;99.90;;;;;;4859850;29;20234;-66
2021/09/21 08:25:11;;;;;;;14.10;10.23;;;13.70;99.90;;;;;;4874709;29;20207;-66
2021/09/21 08:27:40;;;;;;;15.20;9.93;;;13.70;99.90;;;;;;4877335;29;20278;-66
2021/09/21 08:30:26;;;;;;;13.73;9.40;;;13.90;99.90;;;;;;4873391;29;20289;-66
2021/09/21 08:32:57;;;;;;;14.83;9.40;;;14.00;99.90;;;;;;4871514;29;20830;-66
2021/09/21 08:35:25;;;;;;;15.73;9.60;;;14.10;99.90;;;;;;4869604;29;20206;-66
2021/09/21 08:37:53;;;;;;;18.77;9.63;;;14.20;99.90;;;;;;4872185;29;20260;-66
2021/09/21 08:40:22;;;;;;;24.07;10.67;;;14.20;99.90;;;;;;4876121;29;20241;-66
2021/09/21 08:42:51;;;;;;;16.83;9.47;;;14.30;99.90;;;;;;4877013;29;20271;-66
2021/09/21 08:45:19;;;;;;;23.47;9.67;;;14.40;99.90;;;;;;4868673;29;20233;-66
2021/09/21 08:47:48;;;;;;;15.70;9.53;;;14.50;99.90;;;;;;4876703;29;20616;-66
2021/09/21 08:50:19;;;;;;;13.77;9.53;;;14.50;99.90;;;;;;4875640;29;20453;-66
2021/09/21 08:52:48;;;;;;;14.27;9.50;;;14.60;99.90;;;;;;4872352;29;20213;-66
2021/09/21 08:55:17;;;;;;;15.57;9.57;;;14.80;99.90;;;;;;4867464;29;20680;-64
2021/09/21 08:57:46;;;;;;;14.33;9.83;;;14.90;99.90;;;;;;4872587;29;20207;-66
2021/09/21 09:00:23;;;;;;;17.60;9.20;;;15.00;99.90;;;;;;4870717;29;20623;-66
2021/09/21 09:02:51;;;;;;;11.87;8.67;;;15.10;99.90;;;;;;4860234;29;20198;-66
2021/09/21 09:05:22;;;;;;;14.63;8.93;;;15.10;99.90;;;;;;4875699;29;20207;-66
2021/09/21 09:07:52;;;;;;;12.23;8.53;;;15.30;99.90;;;;;;4872742;29;20302;-66
2021/09/21 09:10:21;;;;;;;12.10;7.90;;;15.30;99.90;;;;;;4875978;29;20286;-66
2021/09/21 09:12:51;;;;;;;15.27;8.10;;;15.30;99.90;;;;;;4876854;29;20659;-66
2021/09/21 09:15:21;;;;;;;10.30;7.80;;;15.40;99.90;;;;;;4843968;29;20199;-65
2021/09/21 09:17:58;;;;;;;13.10;7.40;;;15.50;99.90;;;;;;4876839;29;20778;-66
2021/09/21 09:20:37;;;;;;;11.77;7.63;;;15.50;99.90;;;;;;4876842;29;20198;-65
2021/09/21 09:23:08;;;;;;;10.13;8.00;;;15.60;99.90;;;;;;4869080;29;20266;-66
2021/09/21 09:25:41;;;;;;;8.97;7.70;;;15.70;99.90;;;;;;4854875;29;20243;-65
2021/09/21 09:28:17;;;;;;;7.60;6.77;;;15.90;99.90;;;;;;4880024;29;20226;-65
2021/09/21 09:30:46;;;;;;;10.93;7.60;;;16.00;99.90;;;;;;4877676;29;20202;-66
2021/09/21 09:33:15;;;;;;;10.30;7.60;;;16.20;99.90;;;;;;4875650;29;20199;-64
2021/09/21 09:35:47;;;;;;;10.37;7.60;;;16.20;99.90;;;;;;4871129;29;20925;-66
2021/09/21 09:38:18;;;;;;;10.57;7.53;;;16.30;99.90;;;;;;4873480;29;20258;-65
2021/09/21 09:40:48;;;;;;;11.27;6.87;;;16.40;99.90;;;;;;4878109;29;20278;-66
2021/09/21 09:43:18;;;;;;;7.87;6.93;;;16.50;99.90;;;;;;4869670;29;20203;-65
2021/09/21 09:45:52;;;;;;;6.87;6.37;;;16.70;99.90;;;;;;4874309;29;20352;-66
2021/09/21 09:48:23;;;;;;;12.70;6.70;;;16.80;99.90;;;;;;4877055;29;20250;-66
2021/09/21 09:50:55;;;;;;;11.37;7.30;;;17.00;99.90;;;;;;4865367;29;20342;-66
2021/09/21 09:53:27;;;;;;;8.23;7.33;;;17.10;99.90;;;;;;4870497;29;20203;-66
2021/09/21 09:55:57;;;;;;;8.67;7.70;;;17.20;99.90;;;;;;4868769;29;20287;-66
2021/09/21 09:58:26;;;;;;;10.13;7.97;;;17.40;99.90;;;;;;4873475;29;20291;-66
2021/09/21 10:00:56;;;;;;;11.23;8.10;;;17.30;99.90;;;;;;4869054;29;20292;-66
2021/09/21 10:03:26;;;;;;;12.07;8.33;;;17.50;99.90;;;;;;4854250;29;20194;-66
2021/09/21 10:05:56;;;;;;;10.47;6.37;;;17.60;99.90;;;;;;4874401;29;20326;-66
2021/09/21 10:08:26;;;;;;;7.53;6.67;;;17.60;99.90;;;;;;4866300;29;20244;-66
2021/09/21 10:10:55;;;;;;;9.87;6.10;;;17.70;99.90;;;;;;4871400;29;20203;-66
2021/09/21 10:13:24;;;;;;;6.47;5.83;;;17.90;99.90;;;;;;4859269;29;20201;-66
2021/09/21 10:15:52;;;;;;;6.63;5.50;;;17.80;99.90;;;;;;4861498;29;20191;-66
2021/09/21 10:18:22;;;;;;;7.37;6.43;;;17.90;99.90;;;;;;4866838;29;20231;-66
2021/09/21 10:21:00;;;;;;;9.87;6.03;;;17.90;99.90;;;;;;4872381;29;20742;-65
2021/09/21 10:23:33;;;;;;;14.27;6.50;;;18.00;99.90;;;;;;4871242;29;20278;-66
2021/09/21 10:26:13;;;;;;;6.50;5.70;;;18.20;99.90;;;;;;4874201;29;20657;-64
2021/09/21 10:28:45;;;;;;;6.43;5.87;;;18.20;99.90;;;;;;4867103;29;20226;-66
2021/09/21 10:31:15;;;;;;;5.90;5.40;;;18.20;99.90;;;;;;4867337;29;20271;-66
2021/09/21 10:33:44;;;;;;;9.07;5.47;;;18.20;99.90;;;;;;4866744;29;21085;-65
2021/09/21 10:36:19;;;;;;;8.43;5.13;;;18.30;99.90;;;;;;4871235;29;20301;-65
2021/09/21 10:38:56;;;;;;;5.30;4.63;;;18.30;99.90;;;;;;4867111;29;20705;-65
2021/09/21 10:41:24;;;;;;;6.97;5.20;;;18.20;99.90;;;;;;4864522;29;20807;-66
2021/09/21 10:44:01;;;;;;;7.00;4.53;;;18.20;99.90;;;;;;4863767;29;20636;-66
2021/09/21 10:46:29;;;;;;;5.40;5.00;;;18.40;99.90;;;;;;4873194;29;20235;-66
2021/09/21 10:49:01;;;;;;;10.90;5.20;;;18.30;99.90;;;;;;4868169;29;20239;-66
2021/09/21 10:51:31;;;;;;;5.63;4.90;;;18.30;99.90;;;;;;4867893;29;21514;-66
2021/09/21 10:54:03;;;;;;;4.87;4.47;;;18.40;99.90;;;;;;4855484;29;20230;-66
2021/09/21 10:56:32;;;;;;;9.03;5.17;;;18.50;99.90;;;;;;4854873;29;20251;-66
2021/09/21 10:59:03;;;;;;;5.50;4.40;;;18.50;99.90;;;;;;4871526;29;20332;-66
2021/09/21 11:01:31;;;;;;;4.77;4.37;;;18.60;99.90;;;;;;4855230;29;20214;-66
2021/09/21 11:03:59;;;;;;;5.80;5.23;;;18.70;99.90;;;;;;4880166;29;20215;-66
2021/09/21 11:06:28;;;;;;;4.90;4.53;;;18.60;99.90;;;;;;4871949;29;20214;-65
2021/09/21 11:08:58;;;;;;;4.70;4.30;;;18.60;99.90;;;;;;4873701;29;20209;-66
2021/09/21 11:11:34;;;;;;;4.13;3.83;;;18.70;99.90;;;;;;4871405;29;20242;-66
2021/09/21 11:14:03;;;;;;;4.63;4.23;;;18.70;99.90;;;;;;4876256;29;20637;-66
2021/09/21 11:16:31;;;;;;;4.33;4.03;;;18.80;99.90;;;;;;4857997;29;20191;-66
2021/09/21 11:19:05;;;;;;;6.13;4.23;;;18.70;99.90;;;;;;4875677;29;20203;-66
2021/09/21 11:21:33;;;;;;;6.60;4.37;;;18.80;99.90;;;;;;4883035;29;20609;-66
2021/09/21 11:24:06;;;;;;;6.50;4.40;;;18.80;99.90;;;;;;4875086;29;20231;-65
2021/09/21 11:26:37;;;;;;;4.47;3.93;;;19.00;99.90;;;;;;4876827;29;20218;-66
2021/09/21 11:29:15;;;;;;;4.60;4.30;;;19.10;99.90;;;;;;4874738;29;20210;-66
2021/09/21 11:31:47;;;;;;;3.63;3.33;;;19.30;99.90;;;;;;4876457;29;20199;-66
2021/09/21 11:34:16;;;;;;;6.33;3.80;;;19.30;99.90;;;;;;4875223;29;20191;-66
2021/09/21 11:36:49;;;;;;;5.13;3.93;;;19.50;99.90;;;;;;4859747;29;20397;-66
2021/09/21 11:39:19;;;;;;;4.40;4.10;;;19.40;99.90;;;;;;4867823;29;20254;-66
2021/09/21 11:41:53;;;;;;;5.30;4.20;;;19.30;99.90;;;;;;4876452;29;20789;-65
2021/09/21 11:44:21;;;;;;;4.47;4.07;;;19.30;99.90;;;;;;4856465;29;20211;-65
2021/09/21 11:46:57;;;;;;;4.17;3.97;;;19.50;99.90;;;;;;4872458;29;20338;-66
2021/09/21 11:49:26;;;;;;;4.33;3.60;;;19.50;99.90;;;;;;4841232;29;20212;-66
2021/09/21 11:51:54;;;;;;;4.10;3.70;;;19.50;99.90;;;;;;4868623;29;20282;-65
2021/09/21 11:54:24;;;;;;;3.90;3.57;;;19.70;99.90;;;;;;4871163;29;20226;-66
2021/09/21 11:56:54;;;;;;;4.20;3.90;;;19.80;99.90;;;;;;4856851;29;20287;-66
2021/09/21 11:59:23;;;;;;;3.33;3.13;;;19.90;99.90;;;;;;4880022;29;20195;-66
2021/09/21 12:01:52;;;;;;;4.03;3.40;;;19.80;99.90;;;;;;4876632;29;20626;-66
2021/09/21 12:04:20;;;;;;;3.90;3.00;;;19.90;99.90;;;;;;4874814;29;20203;-66
2021/09/21 12:06:49;;;;;;;3.70;3.50;;;20.10;99.90;;;;;;4879302;29;20263;-66
2021/09/21 12:09:19;;;;;;;6.80;3.90;;;20.10;99.90;;;;;;4875543;29;20259;-66
2021/09/21 12:11:48;;;;;;;4.17;3.87;;;20.30;99.90;;;;;;4874047;29;20290;-66
2021/09/21 12:14:17;;;;;;;3.47;3.17;;;20.30;99.90;;;;;;4871225;29;20230;-66
2021/09/21 12:16:51;;;;;;;3.30;3.10;;;20.40;99.90;;;;;;4869751;29;20279;-65
2021/09/21 12:19:20;;;;;;;3.47;3.17;;;20.40;99.90;;;;;;4872584;29;20254;-66
2021/09/21 12:21:48;;;;;;;3.20;3.00;;;20.30;99.90;;;;;;4878630;29;20230;-66
2021/09/21 12:24:17;;;;;;;5.23;3.30;;;20.60;99.90;;;;;;4871592;29;20305;-66
2021/09/21 12:26:45;;;;;;;3.70;3.23;;;20.70;99.90;;;;;;4873305;29;20317;-66
2021/09/21 12:29:20;;;;;;;3.20;3.10;;;20.70;99.90;;;;;;4872138;29;20329;-65
2021/09/21 12:31:49;;;;;;;3.50;3.30;;;20.70;99.90;;;;;;4873782;29;20203;-66
2021/09/21 12:34:18;;;;;;;4.07;3.77;;;20.80;99.90;;;;;;4873602;29;20612;-66
2021/09/21 12:36:48;;;;;;;3.63;3.47;;;20.80;99.90;;;;;;4878089;29;20194;-66
2021/09/21 12:39:19;;;;;;;3.70;3.37;;;20.50;99.90;;;;;;4878228;29;20251;-66
2021/09/21 12:41:49;;;;;;;3.37;3.10;;;20.20;99.90;;;;;;4871522;29;20439;-66
2021/09/21 12:44:21;;;;;;;6.90;3.73;;;20.10;99.90;;;;;;4875874;29;20902;-66
2021/09/21 12:46:53;;;;;;;3.70;3.40;;;20.10;99.90;;;;;;4871139;29;20233;-66
2021/09/21 12:49:23;;;;;;;3.73;3.40;;;20.10;99.90;;;;;;4877532;29;20613;-65
2021/09/21 12:51:54;;;;;;;3.80;3.50;;;19.90;99.90;;;;;;4868753;29;20703;-66
2021/09/21 12:54:25;;;;;;;3.93;3.63;;;19.90;99.90;;;;;;4871586;29;20724;-65
2021/09/21 12:56:56;;;;;;;3.50;3.20;;;20.00;99.90;;;;;;4875440;29;20655;-66
2021/09/21 12:59:28;;;;;;;3.00;2.90;;;20.10;99.90;;;;;;4878407;29;20270;-64
2021/09/21 13:01:56;;;;;;;3.80;3.50;;;20.20;99.90;;;;;;4871692;29;20259;-66